Printer image icon. Send To Printer
           
                RAOB DATA MANUAL QUALITY CONTROL (QC) REPORT
                                  MEXICAN
                       From 20150501 through 20150531

 ___DATE___ HOUR REASN DETAILS...

76256/GYM
   20150506  12Z 10158 10158.
   20150507  12Z 10158 10158.
   20150510  12Z 10158 10158
   20150514  12Z 10158 10158.
   20150515  12Z 10158 10158.
   20150518  12Z 10158 10158...Flight equipment failure
   20150519  12Z 10158 10158...Flight equipment failure
   20150523  12Z 10158 10158...flight equipment failure
   20150526  12Z 10158 10158; Flight equip problems..
   20150527  12Z 10158 10158; Flight equip problems.
   20150530  12Z 10158 10158...Flight equipment failure
   20150531  12Z 10158 10158...Flight equipment failure

12 records found

76394/MTY
   20150521  00Z DELET Purge temps and humidity 958 to 700, 500 to 343, 
                       and 291 to 120mb; wet bulb effect.

1 record found

76405/LAP
   20150501  12Z 10156 10156...Weak signal.
   20150529  12Z 10158 10158...Flight equipment failure

2 records found

76458/MZT
   20150501  00Z 10158 10158
   20150502  00Z 10158 10158
   20150503  00Z 10158 10158...Flight equipment failure
   20150504  00Z 10158 10158...Flight equipment failure
   20150505  00Z 10158 10158
   20150506  00Z 10158 10158
   20150507  00Z 10158 10158
   20150508  00Z 10158 Flight equipment failure...10158
   20150509  00Z 10158 10158
   20150510  00Z 10158 10158; Flight equip problems.
   20150512  00Z 10158 10158...Flight equipment failure
   20150513  00Z 10158 10158...Flight equipment failure
   20150514  00Z 10158 10158...Flight equipment failure
   20150515  00Z 10158 10158
   20150516  00Z 10158 10158
   20150517  00Z 10158 10158
   20150518  00Z 10158 10158
   20150519  00Z 10158 10158; Flight equip problem.
   20150520  00Z 10158 10158; Flight equip problems
   20150521  00Z 10158 10158; Flight equip problem.
   20150522  00Z 10158 10158...Flight equipment failures
   20150523  00Z 10158 10158...Flight equipment failure
   20150524  00Z 10158 10158.
   20150525  00Z 10158 10158.
   20150526  00Z 10158 10158
   20150527  00Z 10158 10158
   20150527  12Z DELET Purge hts/temps/humidity 700mb up..High and warm..
   20150528  00Z 10158 10158
   20150529  00Z 10158 10158
   20150530  00Z 10158 10158; Flight equip problem.
   20150531  00Z 10158 10158

31 records found

76526/ZAC
   20150501  12Z DELET Purge hgts/temps/humidity...very low/warm
   20150502  12Z DELET Purge hgts/temps/humidity; Very low and warm
   20150502  12Z 10158 10158; flight equip problems.
   20150503  12Z DELET Purge hgts/temps/humidity 1000mb up; very low and 
                       warm
   20150521  12Z DELET Purged all hgts/temps
   20150523  12Z DELET Purged winds 248-179 mb...bad spd/dir
   20150528  12Z DELET Purged all hgts/temps...baseline error
                 BASEL
   20150529  12Z DELET Purged winds 115 and up...too strong
   20150530  12Z DELET Purged all hgts/temps...baseline error
                 BASEL
   20150531  12Z 10147 10147...Leaking balloon

10 records found

76644/MID
   20150527  12Z DELET Purge wnds 400 to 84mb erratic. and 
                       hts/temps/humidity 850mb up high and warm.

1 record found

76654/MZL
   20150503  00Z 10158 10158...Flight equipment failure
   20150504  00Z 10158 10158...Flight equipment failure
   20150505  00Z 10158 10158
   20150509  00Z 10158 10158
   20150510  00Z 10158 10158; Flight equip problems.
   20150511  00Z 10158 10158; Flight equip problems.
   20150512  00Z 10158 10158...Flight equipment failure
   20150512  12Z DELET Purged all hgts/temps...high/warm
   20150515  00Z 10158 10158
   20150517  00Z 10158 10158
   20150518  00Z 10158 10158
   20150519  00Z 10158 10158; Flight equip problem.
   20150520  00Z 10158 10158; Flight equip problems
   20150522  00Z 10158 10158...Flight equipment failures
   20150524  00Z 10158 10158.
   20150526  00Z 10158 10158
   20150527  00Z 10158 10158
   20150528  00Z 10158 10158
   20150529  00Z 10158 10158
   20150530  00Z 10158 10158; Flight equip problem.
   20150531  00Z 10158 10158

21 records found

76679/MEX
   20150505  00Z DELET Purged all hgts/temps...high/warm
   20150512  00Z DELET Purged all hgts/temps...portions high/warm
   20150513  00Z SHORT Short to 434 mb
   20150513  12Z DELET Purged all hgts/temps...portions high/warm
   20150520  12Z DELET Purged all hgts/temps...portions low/cold
   20150520  12Z SHORT Short to 545 mb
   20150521  00Z DELET Purge all hts temps humidity; high warm..
   20150523  00Z DELET Purged all hgts/temps...baseline error
                 BASEL
   20150527  12Z DELET Purge hts/temps/humidity 925mb up..High and warm..

9 records found

76692/HYY
   20150502  00Z DELET Purged all temps...too warm
   20150505  00Z DELET Purged all hgts/temps...high/warm
   20150506  00Z DELET Purged all hgts/temps...high/warm
   20150508  00Z DELET Purged all temps...too warm
   20150527  00Z DELET Purged spurious temps/moisture...all levels
   20150529  12Z DELET Purged temps/moisture 690-651 mb...wet bulb effect

6 records found

76805/ACA
   20150506  12Z 10158 10158.
   20150507  12Z 10158 10158.
   20150508  12Z 10158 10158.
   20150509  12Z 10158 Flight equipment failure...10158
   20150510  12Z 10158 10158
   20150511  12Z 10158 10158
   20150512  12Z 10158 10158
   20150513  12Z 10158 10158
   20150520  12Z 10158 10158...Flight equipment failure
   20150528  12Z DELET Purged temps/moisture 101-99 mb...super-adiabatic 
                       lapse rate
   20150529  12Z SHORT Short to 733 mb
   20150531  12Z 10158 10158...Flight equipment failure

12 records found



SELECTED STATIONS WITH NO SDM QC:
  76225/CUU  76595/CUN  76612/GDL  76743/VHA  76903/TAP




This and related reports are available on the Web at . . .
http://www.nco.ncep.noaa.gov/sib/qap/raobqc/